Crosslake, Minnesota
Current Conditions -  °F | °C
As of 6:34 PM on Tuesday 25 Nov 2014 (Local Time) from KPWC Reporting Station
Scattered Clouds Scattered Clouds  
Wind Chill: 18°   Ceiling: Unl
Heat Index: 18°   Visibility: 10mi
Dew Point:   Wind: 0mph
Humidity: 68%   Direction: NA
Pressure: 29.99"   Gusts: NA
Location:  46.68°N, 94.09°W
Report Text: KPWC 260034Z AUTO 00000KT 10SM SCT110 M08/M13 A2999 RMK AO2
Loading
Personal Weather Stations






























Interactive Weather Map New forecast layout! Learn more

10-Day Weather Forecast

Advertisements
Track Severe Weather on mobile